Time;durP1;ratioP1;P1;durP2;ratioP2;P2;SDS_P1;SDS_P2;PMS_P1;PMS_P2;Temp;Humidity;BMP_temperature;BMP_pressure;BME280_temperature;BME280_humidity;BME280_pressure;Samples;Min_cycle;Max_cycle;Signal;HPM_P1;HPM_P2
2021/04/17 00:01:43;;;;;;;4.45;1.20;;;7.70;99.90;;;8.33;58.96;101844.63;5069659;28;20251;-72
2021/04/17 00:04:10;;;;;;;4.03;1.00;;;7.70;99.90;;;8.36;59.09;101842.84;5069394;28;20207;-74
2021/04/17 00:06:37;;;;;;;3.33;1.20;;;7.70;99.90;;;8.34;58.82;101835.94;5068109;28;20191;-72
2021/04/17 00:09:08;;;;;;;3.75;1.10;;;7.70;99.90;;;8.29;59.13;101842.94;5071445;28;20212;-74
2021/04/17 00:11:35;;;;;;;6.43;1.05;;;7.60;99.90;;;8.29;59.21;101830.75;5066528;28;20257;-74
2021/04/17 00:14:05;;;;;;;2.95;0.93;;;7.60;99.90;;;8.25;59.57;101831.69;5067594;28;20652;-74
2021/04/17 00:16:31;;;;;;;7.25;1.30;;;7.60;99.90;;;8.20;59.24;101827.34;5074471;28;20999;-73
2021/04/17 00:18:58;;;;;;;3.40;1.20;;;7.60;99.90;;;8.18;59.27;101822.16;5069743;28;20188;-73
2021/04/17 00:21:25;;;;;;;4.35;1.20;;;7.50;99.90;;;8.18;59.54;101829.09;5065845;28;20215;-73
2021/04/17 00:23:51;;;;;;;4.43;1.27;;;7.50;99.90;;;8.21;59.51;101813.41;5072427;28;20192;-74
2021/04/17 00:26:18;;;;;;;5.03;1.55;;;7.50;99.90;;;8.17;59.75;101811.75;5067905;28;20192;-73
2021/04/17 00:28:44;;;;;;;6.30;1.48;;;7.50;99.90;;;8.14;59.95;101814.38;5092381;28;20770;-71
2021/04/17 00:31:11;;;;;;;3.65;1.10;;;7.50;99.90;;;8.14;60.17;101817.81;5072771;28;20375;-73
2021/04/17 00:33:37;;;;;;;4.28;1.50;;;7.50;99.90;;;8.16;59.93;101804.78;5067581;28;20214;-74
2021/04/17 00:36:04;;;;;;;8.40;1.80;;;7.50;99.90;;;8.15;60.25;101803.94;5063874;28;20213;-73
2021/04/17 00:38:31;;;;;;;9.88;2.00;;;7.50;99.90;;;8.16;59.99;101805.66;5073445;28;20189;-74
2021/04/17 00:40:58;;;;;;;5.97;1.48;;;7.50;99.90;;;8.14;60.00;101802.19;5073419;28;20265;-73
2021/04/17 00:43:26;;;;;;;3.70;1.20;;;7.50;99.90;;;8.16;60.29;101807.38;5088383;28;20188;-73
2021/04/17 00:45:53;;;;;;;5.80;1.42;;;7.50;99.90;;;8.11;60.14;101806.56;5073916;28;20188;-74
2021/04/17 00:48:19;;;;;;;6.18;1.30;;;7.40;99.90;;;8.11;60.42;101801.34;5071758;28;20220;-73
2021/04/17 00:50:47;;;;;;;6.85;1.52;;;7.40;99.90;;;8.13;60.64;101795.25;5073022;28;20204;-74
2021/04/17 00:53:15;;;;;;;8.52;1.98;;;7.40;99.90;;;8.12;60.30;101797.88;5072349;28;20196;-74
2021/04/17 00:55:42;;;;;;;7.05;1.48;;;7.40;99.90;;;8.09;60.58;101801.38;5069162;28;20186;-74
2021/04/17 00:58:09;;;;;;;9.85;1.83;;;7.40;99.90;;;8.06;60.46;101795.31;5053694;28;20188;-74
2021/04/17 01:00:37;;;;;;;8.40;1.58;;;7.40;99.90;;;8.04;60.44;101789.28;5052975;28;20219;-74
2021/04/17 01:03:15;;;;;;;8.02;1.98;;;7.40;99.90;;;8.04;60.28;101787.53;5053516;28;20195;-74
2021/04/17 01:05:46;;;;;;;7.30;1.30;;;7.40;99.90;;;8.06;60.37;101804.00;5058440;28;20636;-74
2021/04/17 01:08:25;;;;;;;7.85;1.70;;;7.40;99.90;;;8.07;60.37;101797.06;5072010;28;20219;-74
2021/04/17 01:10:59;;;;;;;4.18;1.20;;;7.40;99.90;;;8.08;59.99;101790.97;5071792;28;20212;-74
2021/04/17 01:13:27;;;;;;;5.63;1.33;;;7.40;99.90;;;8.09;60.13;101797.91;5074091;28;20241;-75
2021/04/17 01:15:56;;;;;;;7.25;1.80;;;7.40;99.90;;;8.13;60.39;101802.22;5073781;28;20195;-74
2021/04/17 01:18:25;;;;;;;3.65;1.20;;;7.40;99.90;;;8.14;60.15;101806.56;5074108;28;20184;-73
2021/04/17 01:20:56;;;;;;;4.53;1.33;;;7.40;99.90;;;8.18;60.02;101808.25;5071550;28;20215;-74
2021/04/17 01:23:31;;;;;;;3.63;1.23;;;7.50;99.90;;;8.26;60.09;101811.66;5068663;28;20192;-75
2021/04/17 01:26:03;;;;;;;6.97;1.35;;;7.50;99.90;;;8.22;60.14;101802.13;5071384;28;20202;-73
2021/04/17 01:28:34;;;;;;;6.57;1.20;;;7.50;99.90;;;8.19;60.13;101810.81;5065901;28;20729;-73
2021/04/17 01:31:01;;;;;;;6.97;1.50;;;7.50;99.90;;;8.19;60.46;101807.38;5066587;28;20218;-73
2021/04/17 01:33:32;;;;;;;3.63;1.10;;;7.50;99.90;;;8.22;60.32;101799.53;5066949;28;20649;-73
2021/04/17 01:36:01;;;;;;;4.53;1.20;;;7.50;99.90;;;8.24;60.41;101795.19;5065224;28;20218;-72
2021/04/17 01:38:31;;;;;;;5.35;1.35;;;7.50;99.90;;;8.19;60.52;101799.56;5064008;28;20192;-72
2021/04/17 01:41:08;;;;;;;5.72;1.30;;;7.50;99.90;;;8.12;60.85;101800.50;5063716;28;20215;-75
2021/04/17 01:43:35;;;;;;;5.78;1.40;;;7.40;99.90;;;8.06;61.33;101797.94;5064067;28;20199;-73
2021/04/17 01:46:08;;;;;;;4.78;1.08;;;7.30;99.90;;;8.00;62.79;101795.38;5064541;28;20703;-74
2021/04/17 01:48:37;;;;;;;5.32;1.48;;;7.10;99.90;;;7.97;63.62;101787.59;5064299;28;20255;-72
2021/04/17 01:51:06;;;;;;;6.47;1.25;;;7.00;99.90;;;7.85;64.14;101782.50;5063227;28;20684;-74
2021/04/17 01:53:37;;;;;;;6.85;1.40;;;6.80;99.90;;;7.76;64.60;101782.56;5063351;28;21885;-73
2021/04/17 01:56:06;;;;;;;8.73;1.60;;;6.70;99.90;;;7.65;65.50;101773.13;5062780;28;20283;-73
2021/04/17 01:58:39;;;;;;;4.43;1.20;;;6.50;99.90;;;7.60;65.54;101772.28;5064503;28;20196;-74
2021/04/17 02:01:06;;;;;;;7.35;1.50;;;6.50;99.90;;;7.56;66.13;101768.00;5064390;28;20264;-74
2021/04/17 02:03:33;;;;;;;9.80;1.60;;;6.40;99.90;;;7.58;66.18;101770.59;5060620;28;20196;-75
2021/04/17 02:06:00;;;;;;;3.38;1.10;;;6.40;99.90;;;7.57;66.20;101767.13;5064834;28;20253;-74
2021/04/17 02:08:26;;;;;;;7.28;1.23;;;6.40;99.90;;;7.59;66.20;101769.69;5065207;28;20216;-73
2021/04/17 02:10:56;;;;;;;4.30;1.20;;;6.40;99.90;;;7.62;66.33;101759.25;5063494;28;20200;-74
2021/04/17 02:13:23;;;;;;;7.13;1.50;;;6.40;99.90;;;7.61;66.06;101758.41;5067306;28;20188;-75
2021/04/17 02:15:50;;;;;;;5.70;1.30;;;6.40;99.90;;;7.67;65.91;101756.63;5070613;28;20949;-74
2021/04/17 02:18:24;;;;;;;4.18;1.17;;;6.50;99.90;;;7.70;66.02;101760.06;5066183;28;20204;-73
2021/04/17 02:21:02;;;;;;;6.68;1.30;;;6.50;99.90;;;7.70;65.77;101757.47;5061311;28;20215;-73
2021/04/17 02:23:29;;;;;;;3.03;1.02;;;6.60;99.90;;;7.68;65.78;101751.41;5079643;28;20286;-74
2021/04/17 02:25:57;;;;;;;4.40;1.20;;;6.60;99.90;;;7.65;65.63;101754.88;5061665;28;20215;-73
2021/04/17 02:28:26;;;;;;;6.50;1.17;;;6.70;99.90;;;7.67;65.90;101751.41;5062862;28;20212;-74
2021/04/17 02:30:53;;;;;;;6.63;1.38;;;6.70;99.90;;;7.68;65.80;101754.00;5060243;28;20593;-73
2021/04/17 02:33:20;;;;;;;3.70;1.13;;;6.80;99.90;;;7.71;65.74;101747.88;5064069;28;20199;-73
2021/04/17 02:35:46;;;;;;;6.43;1.55;;;6.80;99.90;;;7.70;65.67;101754.00;5062074;28;20196;-73
2021/04/17 02:38:12;;;;;;;5.00;1.42;;;6.80;99.90;;;7.73;65.30;101753.94;5064959;28;20199;-74
2021/04/17 02:40:39;;;;;;;6.82;1.40;;;6.90;99.90;;;7.74;65.22;101746.13;5064365;28;20294;-74
2021/04/17 02:43:05;;;;;;;5.22;1.58;;;6.90;99.90;;;7.77;65.19;101750.47;5058181;28;20203;-73
2021/04/17 02:45:33;;;;;;;3.15;1.15;;;6.90;99.90;;;7.77;64.93;101751.28;5078316;28;20611;-74
2021/04/17 02:47:59;;;;;;;6.28;1.45;;;7.00;99.90;;;7.76;64.82;101743.50;5079713;28;20648;-74
2021/04/17 02:50:26;;;;;;;5.35;1.45;;;7.00;99.90;;;7.74;65.01;101742.69;5078456;28;20204;-74
2021/04/17 02:52:53;;;;;;;4.43;1.60;;;7.00;99.90;;;7.73;65.11;101741.81;5063624;28;20188;-74
2021/04/17 02:55:20;;;;;;;6.38;1.30;;;7.00;99.90;;;7.74;64.79;101742.69;5060344;28;20260;-74
2021/04/17 02:57:48;;;;;;;7.50;1.67;;;7.00;99.90;;;7.73;64.86;101740.94;5071864;28;20566;-73
2021/04/17 03:00:18;;;;;;;5.85;1.40;;;7.00;99.90;;;7.77;65.01;101740.03;5066759;28;20219;-73
2021/04/17 03:02:45;;;;;;;5.38;1.40;;;7.00;99.90;;;7.77;64.80;101737.44;5079288;28;20653;-73
2021/04/17 03:05:13;;;;;;;5.43;1.50;;;7.00;99.90;;;7.79;65.09;101738.28;5064077;28;20207;-72
2021/04/17 03:07:39;;;;;;;5.30;1.50;;;7.00;99.90;;;7.81;65.17;101728.69;5066384;28;20314;-73
2021/04/17 03:10:08;;;;;;;5.43;1.55;;;7.10;99.90;;;7.79;65.15;101730.47;5067457;28;20219;-72
2021/04/17 03:12:35;;;;;;;6.40;1.45;;;7.10;99.90;;;7.80;65.06;101727.84;5064475;28;20752;-72
2021/04/17 03:15:03;;;;;;;3.75;1.00;;;7.10;99.90;;;7.83;64.47;101726.94;5061373;28;20184;-74
2021/04/17 03:17:29;;;;;;;6.22;1.27;;;7.10;99.90;;;7.85;64.72;101726.06;5061426;28;21915;-74
2021/04/17 03:19:56;;;;;;;5.07;1.20;;;7.10;99.90;;;7.86;64.49;101722.56;5077785;28;20223;-74
2021/04/17 03:22:22;;;;;;;3.03;1.00;;;7.20;99.90;;;7.89;64.67;101719.06;5063886;28;20184;-73
2021/04/17 03:24:49;;;;;;;5.28;1.58;;;7.20;99.90;;;7.88;64.09;101720.81;5063770;28;20442;-73
2021/04/17 03:27:15;;;;;;;5.90;1.50;;;7.20;99.90;;;7.86;64.35;101719.09;5064116;28;20188;-74
2021/04/17 03:29:42;;;;;;;6.22;1.73;;;7.10;99.90;;;7.85;64.09;101722.59;5062865;28;20278;-73
2021/04/17 03:32:08;;;;;;;6.28;1.15;;;7.10;99.90;;;7.89;63.86;101719.06;5063154;28;20212;-74
2021/04/17 03:34:35;;;;;;;5.70;1.35;;;7.20;99.90;;;7.95;64.30;101721.59;5062528;28;20656;-74
2021/04/17 03:37:02;;;;;;;7.78;1.42;;;7.20;99.90;;;8.00;64.20;101725.03;5064052;28;20781;-74
2021/04/17 03:39:28;;;;;;;4.82;1.60;;;7.30;99.90;;;8.02;63.63;101721.50;5063203;28;20188;-73
2021/04/17 03:41:55;;;;;;;4.00;1.50;;;7.30;99.90;;;8.03;63.93;101719.78;5066676;28;20203;-74
2021/04/17 03:44:21;;;;;;;5.60;1.50;;;7.30;99.90;;;8.04;63.75;101727.56;5064387;28;20232;-71
2021/04/17 03:46:48;;;;;;;5.07;1.30;;;7.30;99.90;;;8.03;63.58;101725.84;5060278;28;20196;-74
2021/04/17 03:49:14;;;;;;;5.97;1.40;;;7.30;99.90;;;7.98;63.86;101721.56;5064128;28;20219;-74
2021/04/17 03:51:41;;;;;;;6.00;1.40;;;7.30;99.90;;;7.95;63.71;101719.88;5059589;28;20231;-74
2021/04/17 03:54:08;;;;;;;6.22;1.50;;;7.30;99.90;;;7.93;63.61;101718.16;5063704;28;20196;-75
2021/04/17 03:56:34;;;;;;;4.47;1.30;;;7.20;99.90;;;7.93;63.61;101720.75;5067501;28;20200;-73
2021/04/17 03:59:00;;;;;;;7.90;1.80;;;7.20;99.90;;;7.88;63.55;101726.03;5083048;28;20227;-73
2021/04/17 04:01:27;;;;;;;3.28;1.30;;;7.20;99.90;;;7.87;63.76;101726.88;5065891;28;20211;-73
2021/04/17 04:03:56;;;;;;;7.30;1.60;;;7.10;99.90;;;7.86;63.78;101724.28;5067511;28;20196;-73
2021/04/17 04:06:22;;;;;;;7.47;1.55;;;7.10;99.90;;;7.88;63.91;101720.81;5067528;28;20271;-73
2021/04/17 04:08:48;;;;;;;5.43;1.50;;;7.10;99.90;;;7.91;63.69;101723.38;5064917;28;20207;-73
2021/04/17 04:11:16;;;;;;;5.93;1.60;;;7.10;99.90;;;7.92;63.64;101716.44;5063607;28;20212;-74
2021/04/17 04:13:42;;;;;;;5.53;1.30;;;7.10;99.90;;;7.94;63.58;101720.72;5063593;28;20196;-74
2021/04/17 04:16:08;;;;;;;5.60;1.50;;;7.10;99.90;;;7.97;63.39;101719.84;5081472;28;20199;-74
2021/04/17 04:18:34;;;;;;;6.15;1.48;;;7.20;99.90;;;8.03;63.49;101720.66;5062388;28;20684;-74
2021/04/17 04:21:01;;;;;;;5.97;1.40;;;7.20;99.90;;;8.03;63.31;101725.84;5062264;28;20261;-74
2021/04/17 04:23:27;;;;;;;5.53;1.30;;;7.30;99.90;;;8.05;63.03;101723.22;5066814;28;20200;-73
2021/04/17 04:25:53;;;;;;;7.38;1.60;;;7.30;99.90;;;8.06;63.22;101724.94;5071257;28;20208;-74
2021/04/17 04:28:20;;;;;;;5.18;1.50;;;7.30;99.90;;;8.08;62.53;101723.19;5068081;28;20208;-74
2021/04/17 04:30:49;;;;;;;6.93;1.80;;;7.30;99.90;;;8.06;62.66;101727.56;5062342;28;20218;-74
2021/04/17 04:33:15;;;;;;;7.72;1.80;;;7.20;99.90;;;8.07;62.38;101731.91;5063752;28;20204;-74
2021/04/17 04:35:41;;;;;;;6.18;1.40;;;7.30;99.90;;;8.11;62.31;101730.97;5067057;28;20204;-74
2021/04/17 04:38:07;;;;;;;6.60;1.63;;;7.30;99.90;;;8.18;62.29;101736.13;5065906;28;20199;-74
2021/04/17 04:40:34;;;;;;;4.90;1.52;;;7.40;99.90;;;8.24;62.00;101736.06;5063384;28;20227;-74
2021/04/17 04:43:00;;;;;;;6.88;1.88;;;7.40;99.90;;;8.31;62.05;101723.81;5069119;28;20657;-74
2021/04/17 04:45:28;;;;;;;5.65;1.60;;;7.50;99.90;;;8.33;61.86;101725.53;5065330;28;20652;-74
2021/04/17 04:47:54;;;;;;;9.70;1.90;;;7.50;99.90;;;8.34;61.92;101724.66;5066390;28;20199;-74
2021/04/17 04:50:20;;;;;;;7.10;1.75;;;7.50;99.90;;;8.31;62.02;101729.91;5070011;28;20234;-74
2021/04/17 04:52:46;;;;;;;7.13;1.33;;;7.50;99.90;;;8.33;61.76;101735.97;5063546;28;20195;-74
2021/04/17 04:55:14;;;;;;;5.82;1.50;;;7.50;99.90;;;8.33;62.09;101729.88;5066411;28;20188;-73
2021/04/17 04:57:40;;;;;;;6.05;1.67;;;7.50;99.90;;;8.32;61.91;101728.16;5068899;28;20668;-74
2021/04/17 05:00:09;;;;;;;4.63;1.48;;;7.50;99.90;;;8.34;61.92;101726.41;5069369;28;20269;-73
2021/04/17 05:02:36;;;;;;;8.38;1.88;;;7.60;99.90;;;8.28;62.05;101726.47;5071509;28;20187;-74
2021/04/17 05:05:04;;;;;;;7.60;1.70;;;7.50;99.90;;;8.30;62.19;101722.97;5064334;28;20188;-74
2021/04/17 05:07:31;;;;;;;4.20;1.50;;;7.50;99.90;;;8.33;61.60;101727.28;5066300;28;20200;-74
2021/04/17 05:09:57;;;;;;;5.55;1.40;;;7.60;99.90;;;8.30;61.31;101729.94;5067012;28;20215;-74
2021/04/17 05:12:23;;;;;;;5.38;1.40;;;7.50;99.90;;;8.28;61.28;101722.13;5063390;28;20617;-73
2021/04/17 05:14:50;;;;;;;4.90;1.40;;;7.50;99.90;;;8.25;61.11;101726.50;5061855;28;20200;-74
2021/04/17 05:17:16;;;;;;;4.70;1.58;;;7.50;99.90;;;8.22;61.03;101718.69;5065718;28;20188;-74
2021/04/17 05:19:44;;;;;;;6.43;1.30;;;7.50;99.90;;;8.23;61.02;101723.03;5066615;28;20222;-74
2021/04/17 05:22:10;;;;;;;4.38;1.23;;;7.50;99.90;;;8.26;61.19;101723.88;5066476;28;22097;-73
2021/04/17 05:24:37;;;;;;;4.03;1.20;;;7.50;99.90;;;8.27;61.10;101723.00;5067227;28;20234;-74
2021/04/17 05:27:04;;;;;;;9.38;1.70;;;7.50;99.90;;;8.29;61.29;101718.63;5074585;28;20201;-74
2021/04/17 05:29:30;;;;;;;2.65;0.90;;;7.50;99.90;;;8.30;61.17;101727.31;5068312;28;20481;-74
2021/04/17 05:31:57;;;;;;;6.47;1.63;;;7.50;99.90;;;8.33;60.74;101724.66;5068044;28;20196;-74
2021/04/17 05:34:23;;;;;;;5.18;1.50;;;7.50;99.90;;;8.34;61.16;101718.59;5068141;28;20203;-75
2021/04/17 05:36:50;;;;;;;4.82;1.20;;;7.50;99.90;;;8.30;61.10;101724.72;5066055;28;20207;-74
2021/04/17 05:39:17;;;;;;;6.15;1.50;;;7.50;99.90;;;8.27;61.05;101725.59;5062682;28;20203;-74
2021/04/17 05:41:43;;;;;;;5.28;1.40;;;7.50;99.90;;;8.27;61.06;101727.38;5067112;28;20215;-74
2021/04/17 05:44:12;;;;;;;6.40;1.40;;;7.50;99.90;;;8.26;61.00;101725.63;5076530;28;20192;-74
2021/04/17 05:46:41;;;;;;;6.20;1.55;;;7.50;99.90;;;8.26;61.01;101723.00;5064343;28;20189;-74
2021/04/17 05:49:08;;;;;;;7.10;1.50;;;7.50;99.90;;;8.25;61.14;101723.91;5065751;28;20212;-74
2021/04/17 05:51:35;;;;;;;6.78;1.50;;;7.50;99.90;;;8.27;61.11;101716.94;5065763;28;20216;-74
2021/04/17 05:54:03;;;;;;;5.32;1.63;;;7.50;99.90;;;8.25;61.26;101716.09;5066296;28;20567;-73
2021/04/17 05:56:29;;;;;;;6.82;1.60;;;7.50;99.90;;;8.28;61.22;101727.34;5068042;28;20207;-75
2021/04/17 05:58:56;;;;;;;3.30;1.20;;;7.50;99.90;;;8.31;61.13;101729.91;5066275;28;20188;-75
2021/04/17 06:01:23;;;;;;;8.02;1.50;;;7.50;99.90;;;8.30;61.05;101730.81;5064101;28;20220;-72
2021/04/17 06:03:49;;;;;;;8.73;1.80;;;7.60;99.90;;;8.31;61.15;101736.84;5062900;28;20200;-73
2021/04/17 06:06:16;;;;;;;8.20;2.22;;;7.60;99.90;;;8.32;61.33;101730.78;5067630;28;20188;-73
2021/04/17 06:08:43;;;;;;;7.47;1.98;;;7.60;99.90;;;8.32;61.32;101725.56;5064563;28;20216;-71
2021/04/17 06:11:10;;;;;;;6.00;1.77;;;7.60;99.90;;;8.32;61.04;101730.78;5062562;28;20728;-71
2021/04/17 06:13:37;;;;;;;5.57;1.50;;;7.60;99.90;;;8.33;61.06;101730.75;5066783;28;20192;-73
2021/04/17 06:16:05;;;;;;;4.85;1.60;;;7.60;99.90;;;8.35;61.31;101729.00;5081867;28;20203;-74
2021/04/17 06:18:32;;;;;;;4.95;1.30;;;7.60;99.90;;;8.36;61.53;101729.84;5063267;28;20243;-74
2021/04/17 06:20:58;;;;;;;9.00;1.90;;;7.60;99.90;;;8.37;61.80;101728.97;5067531;28;20215;-74
2021/04/17 06:23:25;;;;;;;5.03;1.60;;;7.60;99.90;;;8.39;61.82;101720.25;5069770;28;20189;-75
2021/04/17 06:25:51;;;;;;;5.15;1.33;;;7.60;99.90;;;8.44;61.86;101728.03;5067606;28;20199;-72
2021/04/17 06:28:19;;;;;;;5.70;1.42;;;7.70;99.90;;;8.47;61.67;101725.38;5066352;28;20692;-73
2021/04/17 06:30:46;;;;;;;7.63;1.77;;;7.70;99.90;;;8.52;61.61;101727.03;5057626;28;20216;-74
2021/04/17 06:33:13;;;;;;;7.65;1.42;;;7.70;99.90;;;8.55;61.97;101726.13;5066863;28;20219;-73
2021/04/17 06:35:40;;;;;;;7.70;2.15;;;7.70;99.90;;;8.52;61.66;101726.19;5065351;28;20188;-70
2021/04/17 06:38:08;;;;;;;5.72;1.83;;;7.70;99.90;;;8.51;61.53;101724.44;5064516;28;20184;-70
2021/04/17 06:40:34;;;;;;;9.60;2.58;;;7.70;99.90;;;8.52;61.68;101726.19;5072082;28;20604;-72
2021/04/17 06:43:04;;;;;;;9.32;2.78;;;7.70;99.90;;;8.55;61.70;101731.34;5070455;28;20196;-71
2021/04/17 06:45:34;;;;;;;8.15;2.00;;;7.70;99.90;;;8.55;61.73;101733.97;5064285;28;20759;-72
2021/04/17 06:48:05;;;;;;;8.10;2.55;;;7.70;99.90;;;8.55;61.44;101720.91;5060973;28;20306;-72
2021/04/17 06:50:33;;;;;;;8.25;1.50;;;7.80;99.90;;;8.59;62.30;101728.66;5065485;28;20651;-72
2021/04/17 06:53:04;;;;;;;5.93;1.63;;;7.80;99.90;;;8.64;62.20;101736.47;5065084;28;20206;-72
2021/04/17 06:55:30;;;;;;;7.47;1.70;;;7.90;99.90;;;8.66;62.58;101732.94;5080353;28;20188;-74
2021/04/17 06:57:57;;;;;;;6.40;1.55;;;7.90;99.90;;;8.65;61.86;101738.19;5074087;28;20589;-73
2021/04/17 07:00:25;;;;;;;7.93;1.92;;;7.90;99.90;;;8.64;61.86;101741.69;5066813;28;20216;-71
2021/04/17 07:02:52;;;;;;;10.60;1.92;;;7.90;99.90;;;8.53;62.27;101728.75;5067073;28;20720;-70
2021/04/17 07:05:19;;;;;;;6.97;2.13;;;7.80;99.90;;;8.49;62.65;101727.06;5067509;28;20841;-74
2021/04/17 07:07:46;;;;;;;5.78;1.48;;;7.80;99.90;;;8.44;63.09;101735.84;5064663;28;20200;-71
2021/04/17 07:10:14;;;;;;;8.63;1.60;;;7.80;99.90;;;8.46;62.87;101732.31;5065167;28;20687;-69
2021/04/17 07:12:43;;;;;;;7.75;1.65;;;7.80;99.90;;;8.48;62.77;101734.91;5067813;28;20633;-75
2021/04/17 07:15:11;;;;;;;7.65;1.48;;;7.80;99.90;;;8.48;62.90;101727.97;5062676;28;20199;-73
2021/04/17 07:17:38;;;;;;;5.75;1.45;;;7.80;99.90;;;8.48;62.89;101729.69;5067568;28;20207;-75
2021/04/17 07:20:07;;;;;;;7.93;1.70;;;7.80;99.90;;;8.51;62.98;101737.47;5071630;28;20234;-69
2021/04/17 07:22:36;;;;;;;6.82;2.13;;;7.80;99.90;;;8.53;62.91;101738.31;5066499;28;20200;-71
2021/04/17 07:25:18;;;;;;;8.07;1.80;;;7.90;99.90;;;8.59;62.97;101733.06;5069024;28;20214;-73
2021/04/17 07:27:47;;;;;;;5.93;1.67;;;7.90;99.90;;;8.64;62.87;101733.84;5068326;28;20334;-75
2021/04/17 07:30:31;;;;;;;5.88;1.70;;;7.90;99.90;;;8.64;63.33;101733.84;5068758;28;20223;-71
2021/04/17 07:33:11;;;;;;;7.55;2.05;;;8.00;99.90;;;8.64;63.43;101732.09;5069876;28;20262;-70
2021/04/17 07:35:41;;;;;;;6.43;1.58;;;8.00;99.90;;;8.74;63.23;101735.47;5066594;28;20249;-70
2021/04/17 07:38:13;;;;;;;6.88;1.90;;;8.10;99.90;;;8.85;63.18;101736.16;5069953;28;20196;-74
2021/04/17 07:40:41;;;;;;;7.63;1.83;;;8.30;99.90;;;8.93;63.32;101731.69;5077057;28;20234;-75
2021/04/17 07:43:08;;;;;;;8.52;1.98;;;8.40;99.90;;;8.98;63.46;101729.00;5075727;28;20214;-74
2021/04/17 07:45:38;;;;;;;11.90;2.00;;;8.40;99.90;;;8.99;62.73;101734.22;5063166;28;20447;-74
2021/04/17 07:48:24;;;;;;;9.05;1.83;;;8.40;99.90;;;9.03;63.33;101741.09;5084600;28;20207;-74
2021/04/17 07:50:52;;;;;;;6.43;1.58;;;8.50;99.90;;;9.09;63.67;101733.22;5074230;28;20289;-74
2021/04/17 07:53:28;;;;;;;10.32;1.92;;;8.60;99.90;;;9.14;63.51;101739.22;5078851;28;22242;-74
2021/04/17 07:55:54;;;;;;;8.50;1.67;;;8.60;99.90;;;9.17;63.14;101747.00;5069350;28;20195;-73
2021/04/17 07:58:21;;;;;;;10.30;2.38;;;8.60;99.90;;;9.11;62.93;101735.78;5072818;28;20192;-75
2021/04/17 08:00:48;;;;;;;7.28;1.80;;;8.60;99.90;;;9.05;63.19;101744.56;5073121;28;20223;-75
2021/04/17 08:03:19;;;;;;;8.00;1.92;;;8.60;99.90;;;9.06;63.19;101750.66;5075228;28;20192;-74
2021/04/17 08:05:46;;;;;;;9.05;2.00;;;8.60;99.90;;;9.14;62.96;101751.41;5088209;28;20196;-74
2021/04/17 08:08:16;;;;;;;8.00;2.17;;;8.70;99.90;;;9.32;62.70;101748.50;5070801;28;20203;-74
2021/04/17 08:10:42;;;;;;;8.93;2.28;;;8.90;99.90;;;9.47;62.27;101749.13;5072204;28;20302;-73
2021/04/17 08:13:10;;;;;;;9.80;2.35;;;9.00;99.90;;;9.58;62.31;101739.34;5080841;28;20621;-74
2021/04/17 08:15:37;;;;;;;10.45;3.10;;;9.30;99.90;;;9.72;62.04;101749.56;5076487;28;20286;-72
2021/04/17 08:18:05;;;;;;;7.95;2.15;;;9.50;99.90;;;9.84;61.66;101751.97;5086069;28;20450;-74
2021/04/17 08:20:31;;;;;;;9.25;2.05;;;9.50;99.90;;;9.84;61.44;101750.25;5061952;28;20241;-74
2021/04/17 08:23:00;;;;;;;9.75;2.70;;;9.60;99.90;;;9.81;61.57;101749.44;5081188;28;20217;-73
2021/04/17 08:25:27;;;;;;;8.80;2.70;;;9.60;99.90;;;9.87;61.38;101739.72;5074442;28;20200;-72
2021/04/17 08:27:54;;;;;;;6.90;2.08;;;9.70;99.90;;;9.99;61.19;101744.72;5074403;28;20684;-71
2021/04/17 08:30:24;;;;;;;8.45;2.80;;;9.80;99.90;;;10.10;61.51;101752.38;5087278;28;20244;-68
2021/04/17 08:32:51;;;;;;;12.98;2.60;;;10.00;99.90;;;10.21;61.06;101746.97;5081521;28;20206;-72
2021/04/17 08:35:19;;;;;;;10.90;2.92;;;10.10;99.90;;;10.25;60.78;101741.63;5066623;28;20268;-72
2021/04/17 08:38:08;;;;;;;9.15;2.00;;;10.20;99.90;;;10.33;61.06;101739.75;5072401;28;20195;-72
2021/04/17 08:41:00;;;;;;;9.48;2.28;;;10.30;99.90;;;10.45;60.89;101738.63;5068998;28;20221;-72
2021/04/17 08:43:34;;;;;;;10.60;3.67;;;10.50;99.90;;;10.56;60.29;101736.66;5062990;28;20208;-72
2021/04/17 08:46:13;;;;;;;8.65;2.25;;;10.60;99.90;;;10.59;60.01;101741.81;5068890;28;20223;-76
2021/04/17 08:49:01;;;;;;;11.55;2.60;;;10.60;99.90;;;10.59;59.87;101736.56;5080061;28;20253;-72
2021/04/17 08:51:36;;;;;;;7.65;1.90;;;10.70;99.90;;;10.60;59.90;101743.56;5070173;28;20231;-72
2021/04/17 08:54:26;;;;;;;9.20;2.25;;;10.80;99.90;;;10.59;60.23;101741.81;5076413;28;20197;-73
2021/04/17 08:57:03;;;;;;;10.65;2.55;;;10.80;99.90;;;10.64;59.88;101737.34;5080764;28;20202;-72
2021/04/17 08:59:33;;;;;;;10.75;3.00;;;10.90;99.90;;;10.72;59.84;101735.41;5076252;28;20200;-74
2021/04/17 09:02:05;;;;;;;11.10;2.80;;;10.90;99.90;;;10.84;59.91;101738.66;5080305;28;20185;-73
2021/04/17 09:04:34;;;;;;;9.63;2.50;;;11.00;99.90;;;10.92;59.53;101746.31;5102245;28;20645;-72
2021/04/17 09:07:00;;;;;;;12.40;2.63;;;11.10;99.90;;;10.98;59.10;101741.81;5072401;28;20521;-73
2021/04/17 09:09:33;;;;;;;11.98;4.05;;;11.00;99.90;;;11.07;59.14;101745.97;5072617;28;20212;-72
2021/04/17 09:12:28;;;;;;;9.65;2.53;;;11.00;99.90;;;11.08;58.78;101743.34;5066090;28;20715;-73
2021/04/17 09:15:04;;;;;;;9.18;2.33;;;11.10;99.90;;;11.08;58.83;101737.22;5085465;28;20204;-72
2021/04/17 09:17:47;;;;;;;12.50;3.92;;;11.20;99.90;;;11.12;59.00;101738.88;5065712;28;20885;-74
2021/04/17 09:20:41;;;;;;;16.23;5.28;;;11.30;99.90;;;11.21;58.78;101744.78;5072607;28;20222;-71
2021/04/17 09:23:08;;;;;;;9.05;2.40;;;11.40;99.90;;;11.31;58.61;101750.66;5069407;28;20233;-73
2021/04/17 09:25:41;;;;;;;14.00;3.70;;;11.50;99.90;;;11.36;58.33;101739.16;5071627;28;20196;-73
2021/04/17 09:28:08;;;;;;;12.52;3.25;;;11.50;99.90;;;11.45;58.34;101739.84;5081369;28;20199;-72
2021/04/17 09:30:35;;;;;;;16.23;3.30;;;11.60;99.90;;;11.50;58.23;101735.34;5063292;28;20220;-74
2021/04/17 09:33:01;;;;;;;12.80;3.35;;;11.60;99.90;;;11.60;58.14;101740.31;5071755;28;20270;-74
2021/04/17 09:35:31;;;;;;;12.45;2.83;;;11.70;99.90;;;11.64;58.12;101741.97;5072709;28;20192;-74
2021/04/17 09:38:11;;;;;;;13.95;3.58;;;11.80;99.90;;;11.69;57.85;101737.47;5085848;28;20290;-72
2021/04/17 09:40:44;;;;;;;9.20;2.55;;;11.90;99.90;;;11.69;57.65;101740.09;5068462;28;20316;-75
2021/04/17 09:43:24;;;;;;;10.95;2.40;;;11.90;99.90;;;11.77;58.14;101740.75;5063204;28;20197;-72
2021/04/17 09:45:51;;;;;;;11.73;2.70;;;12.10;99.90;;;11.90;57.55;101729.06;5083641;28;20223;-73
2021/04/17 09:48:20;;;;;;;10.55;2.75;;;12.20;99.90;;;11.95;57.25;101731.56;5076306;28;20200;-71
2021/04/17 09:50:48;;;;;;;13.38;2.60;;;12.30;99.90;;;11.97;57.43;101721.91;5068051;28;20708;-72
2021/04/17 09:53:18;;;;;;;8.98;2.70;;;12.40;99.90;;;12.07;57.59;101728.63;5068662;28;20200;-72
2021/04/17 09:55:51;;;;;;;9.38;2.65;;;12.50;99.90;;;12.25;56.90;101723.72;5077465;28;20244;-73
2021/04/17 09:58:31;;;;;;;9.85;2.33;;;12.60;99.90;;;12.39;56.62;101721.56;5073913;28;20244;-73
2021/04/17 10:01:11;;;;;;;12.38;2.70;;;12.70;99.90;;;12.44;56.39;101724.91;5085874;28;20218;-73
2021/04/17 10:03:39;;;;;;;10.20;2.10;;;12.70;99.90;;;12.34;56.24;101718.19;5068040;28;20555;-73
2021/04/17 10:06:25;;;;;;;8.57;2.50;;;12.50;99.90;;;12.19;57.16;101717.78;5069875;28;20569;-72
2021/04/17 10:08:52;;;;;;;10.27;2.33;;;12.40;99.90;;;12.11;57.27;101715.38;5069383;28;20222;-74
2021/04/17 10:11:24;;;;;;;10.77;2.63;;;12.30;99.90;;;12.08;57.48;101722.47;5071531;28;20291;-72
2021/04/17 10:13:51;;;;;;;9.95;2.88;;;12.20;99.90;;;12.03;57.48;101716.47;5069954;28;20207;-74
2021/04/17 10:16:27;;;;;;;10.07;2.90;;;12.20;99.90;;;12.08;57.26;101714.59;5064814;28;20203;-71
2021/04/17 10:18:54;;;;;;;10.27;2.40;;;12.10;99.90;;;12.14;57.13;101703.94;5064867;28;20191;-72
2021/04/17 10:21:26;;;;;;;9.25;2.83;;;12.10;99.90;;;12.19;57.00;101694.19;5068511;28;20219;-72
2021/04/17 10:24:16;;;;;;;10.35;2.47;;;12.10;99.90;;;12.34;57.16;101699.00;5070332;28;20196;-72
2021/04/17 10:26:52;;;;;;;8.95;2.10;;;12.20;99.90;;;12.29;56.92;101695.63;5082248;28;20195;-71
2021/04/17 10:29:20;;;;;;;10.93;3.00;;;12.20;99.90;;;12.39;56.90;101700.56;5063275;28;20203;-71
2021/04/17 10:31:59;;;;;;;10.63;3.25;;;12.40;99.90;;;12.64;56.68;101698.09;5067994;28;20218;-72